sensor_id;sensor_type;location;lat;lon;timestamp;temperature;humidity
43697;DHT22;29301;47.620;19.560;2022-08-01T00:01:56;19.40;87.40
43697;DHT22;29301;47.620;19.560;2022-08-01T00:04:22;19.30;87.10
43697;DHT22;29301;47.620;19.560;2022-08-01T00:06:48;19.30;87.40
43697;DHT22;29301;47.620;19.560;2022-08-01T00:09:13;19.40;87.10
43697;DHT22;29301;47.620;19.560;2022-08-01T00:11:39;19.40;86.70
43697;DHT22;29301;47.620;19.560;2022-08-01T00:14:05;19.30;87.10
43697;DHT22;29301;47.620;19.560;2022-08-01T00:16:30;19.30;87.40
43697;DHT22;29301;47.620;19.560;2022-08-01T00:18:56;19.20;87.80
43697;DHT22;29301;47.620;19.560;2022-08-01T00:21:22;19.20;88.20
43697;DHT22;29301;47.620;19.560;2022-08-01T00:23:48;19.20;88.80
43697;DHT22;29301;47.620;19.560;2022-08-01T00:26:14;19.00;90.10
43697;DHT22;29301;47.620;19.560;2022-08-01T00:28:40;19.00;90.70
43697;DHT22;29301;47.620;19.560;2022-08-01T00:31:06;18.80;91.00
43697;DHT22;29301;47.620;19.560;2022-08-01T00:33:32;18.90;91.20
43697;DHT22;29301;47.620;19.560;2022-08-01T00:35:58;18.90;91.30
43697;DHT22;29301;47.620;19.560;2022-08-01T00:38:24;18.90;91.30
43697;DHT22;29301;47.620;19.560;2022-08-01T00:40:50;18.90;91.50
43697;DHT22;29301;47.620;19.560;2022-08-01T00:43:16;18.80;91.60
43697;DHT22;29301;47.620;19.560;2022-08-01T00:45:42;18.80;91.80
43697;DHT22;29301;47.620;19.560;2022-08-01T00:48:08;18.80;91.90
43697;DHT22;29301;47.620;19.560;2022-08-01T00:50:34;18.80;91.80
43697;DHT22;29301;47.620;19.560;2022-08-01T00:53:00;18.80;91.80
43697;DHT22;29301;47.620;19.560;2022-08-01T00:55:29;18.80;92.10
43697;DHT22;29301;47.620;19.560;2022-08-01T00:57:56;18.80;92.30
43697;DHT22;29301;47.620;19.560;2022-08-01T01:00:22;18.80;92.40
43697;DHT22;29301;47.620;19.560;2022-08-01T01:02:48;18.80;92.30
43697;DHT22;29301;47.620;19.560;2022-08-01T01:05:14;18.70;92.00
43697;DHT22;29301;47.620;19.560;2022-08-01T01:08:04;18.70;92.10
43697;DHT22;29301;47.620;19.560;2022-08-01T01:10:45;18.70;92.10
43697;DHT22;29301;47.620;19.560;2022-08-01T01:16:01;18.60;92.00
43697;DHT22;29301;47.620;19.560;2022-08-01T01:18:37;18.60;92.00
43697;DHT22;29301;47.620;19.560;2022-08-01T01:26:31;18.60;92.30
43697;DHT22;29301;47.620;19.560;2022-08-01T01:29:07;18.60;91.80
43697;DHT22;29301;47.620;19.560;2022-08-01T01:31:41;18.60;91.80
43697;DHT22;29301;47.620;19.560;2022-08-01T01:34:09;18.50;92.20
43697;DHT22;29301;47.620;19.560;2022-08-01T01:36:38;18.40;92.50
43697;DHT22;29301;47.620;19.560;2022-08-01T01:39:05;18.30;92.30
43697;DHT22;29301;47.620;19.560;2022-08-01T01:41:32;18.30;92.50
43697;DHT22;29301;47.620;19.560;2022-08-01T01:44:01;18.30;92.70
43697;DHT22;29301;47.620;19.560;2022-08-01T01:46:28;18.20;93.00
43697;DHT22;29301;47.620;19.560;2022-08-01T01:48:55;18.20;93.00
43697;DHT22;29301;47.620;19.560;2022-08-01T01:51:23;18.10;92.70
43697;DHT22;29301;47.620;19.560;2022-08-01T01:53:52;18.00;92.90
43697;DHT22;29301;47.620;19.560;2022-08-01T01:56:18;18.00;93.30
43697;DHT22;29301;47.620;19.560;2022-08-01T01:58:49;17.90;93.60
43697;DHT22;29301;47.620;19.560;2022-08-01T02:01:17;17.90;93.50
43697;DHT22;29301;47.620;19.560;2022-08-01T02:03:43;17.90;93.80
43697;DHT22;29301;47.620;19.560;2022-08-01T02:06:12;17.90;94.00
43697;DHT22;29301;47.620;19.560;2022-08-01T02:08:40;18.00;93.70
43697;DHT22;29301;47.620;19.560;2022-08-01T02:11:07;17.90;93.50
43697;DHT22;29301;47.620;19.560;2022-08-01T02:13:50;17.90;93.70
43697;DHT22;29301;47.620;19.560;2022-08-01T02:16:19;17.80;93.80
43697;DHT22;29301;47.620;19.560;2022-08-01T02:18:45;17.80;93.70
43697;DHT22;29301;47.620;19.560;2022-08-01T02:21:14;17.90;93.50
43697;DHT22;29301;47.620;19.560;2022-08-01T02:23:42;17.90;93.20
43697;DHT22;29301;47.620;19.560;2022-08-01T02:26:13;18.00;93.10
43697;DHT22;29301;47.620;19.560;2022-08-01T02:28:53;17.90;93.20
43697;DHT22;29301;47.620;19.560;2022-08-01T02:31:22;17.80;93.30
43697;DHT22;29301;47.620;19.560;2022-08-01T02:33:58;17.80;93.50
43697;DHT22;29301;47.620;19.560;2022-08-01T02:36:26;17.80;93.70
43697;DHT22;29301;47.620;19.560;2022-08-01T02:38:54;17.70;93.80
43697;DHT22;29301;47.620;19.560;2022-08-01T02:41:22;17.70;94.20
43697;DHT22;29301;47.620;19.560;2022-08-01T02:43:50;17.60;94.50
43697;DHT22;29301;47.620;19.560;2022-08-01T02:46:21;17.50;95.00
43697;DHT22;29301;47.620;19.560;2022-08-01T02:48:50;17.40;95.50
43697;DHT22;29301;47.620;19.560;2022-08-01T02:51:17;17.40;95.50
43697;DHT22;29301;47.620;19.560;2022-08-01T02:53:45;17.40;95.50
43697;DHT22;29301;47.620;19.560;2022-08-01T02:56:13;17.40;95.70
43697;DHT22;29301;47.620;19.560;2022-08-01T02:58:41;17.40;95.90
43697;DHT22;29301;47.620;19.560;2022-08-01T03:01:09;17.30;96.10
43697;DHT22;29301;47.620;19.560;2022-08-01T03:03:36;17.20;96.40
43697;DHT22;29301;47.620;19.560;2022-08-01T03:06:03;17.20;96.60
43697;DHT22;29301;47.620;19.560;2022-08-01T03:08:30;17.20;96.70
43697;DHT22;29301;47.620;19.560;2022-08-01T03:10:56;17.20;96.70
43697;DHT22;29301;47.620;19.560;2022-08-01T03:13:25;17.30;96.90
43697;DHT22;29301;47.620;19.560;2022-08-01T03:15:52;17.20;96.40
43697;DHT22;29301;47.620;19.560;2022-08-01T03:18:20;17.10;96.20
43697;DHT22;29301;47.620;19.560;2022-08-01T03:20:49;17.00;96.50
43697;DHT22;29301;47.620;19.560;2022-08-01T03:23:16;16.90;96.80
43697;DHT22;29301;47.620;19.560;2022-08-01T03:25:43;16.70;97.80
43697;DHT22;29301;47.620;19.560;2022-08-01T03:28:13;16.50;99.20
43697;DHT22;29301;47.620;19.560;2022-08-01T03:30:40;16.50;99.70
43697;DHT22;29301;47.620;19.560;2022-08-01T03:33:06;16.50;99.80
43697;DHT22;29301;47.620;19.560;2022-08-01T03:35:39;16.60;99.70
43697;DHT22;29301;47.620;19.560;2022-08-01T03:38:08;16.70;99.60
43697;DHT22;29301;47.620;19.560;2022-08-01T03:40:39;16.80;99.40
43697;DHT22;29301;47.620;19.560;2022-08-01T03:43:09;16.80;99.00
43697;DHT22;29301;47.620;19.560;2022-08-01T03:45:41;16.80;99.00
43697;DHT22;29301;47.620;19.560;2022-08-01T03:48:14;16.70;99.40
43697;DHT22;29301;47.620;19.560;2022-08-01T03:50:43;16.70;99.60
43697;DHT22;29301;47.620;19.560;2022-08-01T03:53:11;16.70;99.90
43697;DHT22;29301;47.620;19.560;2022-08-01T03:55:39;16.70;99.90
43697;DHT22;29301;47.620;19.560;2022-08-01T03:58:08;16.60;99.90
43697;DHT22;29301;47.620;19.560;2022-08-01T04:00:36;16.70;99.90
43697;DHT22;29301;47.620;19.560;2022-08-01T04:03:05;16.70;99.90
43697;DHT22;29301;47.620;19.560;2022-08-01T04:05:32;16.80;99.90
43697;DHT22;29301;47.620;19.560;2022-08-01T04:07:57;16.80;99.90
43697;DHT22;29301;47.620;19.560;2022-08-01T04:10:25;17.00;99.90
43697;DHT22;29301;47.620;19.560;2022-08-01T04:12:51;17.00;99.90
43697;DHT22;29301;47.620;19.560;2022-08-01T04:15:17;17.00;99.90
43697;DHT22;29301;47.620;19.560;2022-08-01T04:17:46;17.00;99.90
43697;DHT22;29301;47.620;19.560;2022-08-01T04:20:12;17.00;99.90
43697;DHT22;29301;47.620;19.560;2022-08-01T04:22:38;17.00;99.90
43697;DHT22;29301;47.620;19.560;2022-08-01T04:25:09;17.00;99.90
43697;DHT22;29301;47.620;19.560;2022-08-01T04:27:38;17.10;99.90
43697;DHT22;29301;47.620;19.560;2022-08-01T04:30:06;17.10;99.90
43697;DHT22;29301;47.620;19.560;2022-08-01T04:32:35;17.00;99.90
43697;DHT22;29301;47.620;19.560;2022-08-01T04:35:04;17.10;99.90
43697;DHT22;29301;47.620;19.560;2022-08-01T04:37:31;17.10;99.70
43697;DHT22;29301;47.620;19.560;2022-08-01T04:39:58;17.10;99.70
43697;DHT22;29301;47.620;19.560;2022-08-01T04:42:25;17.20;99.70
43697;DHT22;29301;47.620;19.560;2022-08-01T04:44:53;17.20;99.70
43697;DHT22;29301;47.620;19.560;2022-08-01T04:47:19;17.20;99.80
43697;DHT22;29301;47.620;19.560;2022-08-01T04:49:45;17.20;99.60
43697;DHT22;29301;47.620;19.560;2022-08-01T04:52:12;17.20;99.60
43697;DHT22;29301;47.620;19.560;2022-08-01T04:54:38;17.30;99.60
43697;DHT22;29301;47.620;19.560;2022-08-01T04:57:05;17.40;99.40
43697;DHT22;29301;47.620;19.560;2022-08-01T04:59:32;17.40;99.60
43697;DHT22;29301;47.620;19.560;2022-08-01T05:02:15;17.40;99.80
43697;DHT22;29301;47.620;19.560;2022-08-01T05:04:42;17.40;99.90
43697;DHT22;29301;47.620;19.560;2022-08-01T05:07:09;17.40;99.90
43697;DHT22;29301;47.620;19.560;2022-08-01T05:09:35;17.50;99.90
43697;DHT22;29301;47.620;19.560;2022-08-01T05:12:03;17.50;99.90
43697;DHT22;29301;47.620;19.560;2022-08-01T05:14:29;17.60;99.90
43697;DHT22;29301;47.620;19.560;2022-08-01T05:17:02;17.60;99.90
43697;DHT22;29301;47.620;19.560;2022-08-01T05:19:33;17.70;99.90
43697;DHT22;29301;47.620;19.560;2022-08-01T05:22:00;17.70;99.90
43697;DHT22;29301;47.620;19.560;2022-08-01T05:24:27;17.80;99.90
43697;DHT22;29301;47.620;19.560;2022-08-01T05:26:56;17.90;99.90
43697;DHT22;29301;47.620;19.560;2022-08-01T05:29:23;17.90;99.90
43697;DHT22;29301;47.620;19.560;2022-08-01T05:31:49;18.00;99.90
43697;DHT22;29301;47.620;19.560;2022-08-01T05:34:15;18.10;99.80
43697;DHT22;29301;47.620;19.560;2022-08-01T05:36:41;18.20;99.40
43697;DHT22;29301;47.620;19.560;2022-08-01T05:39:07;18.20;98.90
43697;DHT22;29301;47.620;19.560;2022-08-01T05:41:32;18.30;98.30
43697;DHT22;29301;47.620;19.560;2022-08-01T05:43:59;18.40;98.20
43697;DHT22;29301;47.620;19.560;2022-08-01T05:46:24;18.40;98.60
43697;DHT22;29301;47.620;19.560;2022-08-01T05:48:50;18.50;98.70
43697;DHT22;29301;47.620;19.560;2022-08-01T05:51:16;18.50;98.90
43697;DHT22;29301;47.620;19.560;2022-08-01T05:53:41;18.60;98.60
43697;DHT22;29301;47.620;19.560;2022-08-01T05:56:07;18.70;98.20
43697;DHT22;29301;47.620;19.560;2022-08-01T05:58:33;18.70;98.20
43697;DHT22;29301;47.620;19.560;2022-08-01T06:00:58;18.80;97.40
43697;DHT22;29301;47.620;19.560;2022-08-01T06:03:24;18.90;97.00
43697;DHT22;29301;47.620;19.560;2022-08-01T06:05:51;19.00;96.70
43697;DHT22;29301;47.620;19.560;2022-08-01T06:08:17;19.00;96.50
43697;DHT22;29301;47.620;19.560;2022-08-01T06:10:43;19.20;96.30
43697;DHT22;29301;47.620;19.560;2022-08-01T06:13:09;19.30;96.00
43697;DHT22;29301;47.620;19.560;2022-08-01T06:15:35;19.40;95.60
43697;DHT22;29301;47.620;19.560;2022-08-01T06:18:00;19.60;95.40
43697;DHT22;29301;47.620;19.560;2022-08-01T06:20:26;19.70;94.90
43697;DHT22;29301;47.620;19.560;2022-08-01T06:22:52;19.90;94.40
43697;DHT22;29301;47.620;19.560;2022-08-01T06:25:18;20.00;94.40
43697;DHT22;29301;47.620;19.560;2022-08-01T06:27:44;20.20;93.60
43697;DHT22;29301;47.620;19.560;2022-08-01T06:30:10;20.30;93.70
43697;DHT22;29301;47.620;19.560;2022-08-01T06:32:36;20.40;93.10
43697;DHT22;29301;47.620;19.560;2022-08-01T06:35:02;20.50;93.30
43697;DHT22;29301;47.620;19.560;2022-08-01T06:37:32;20.60;93.30
43697;DHT22;29301;47.620;19.560;2022-08-01T06:40:18;20.90;92.80
43697;DHT22;29301;47.620;19.560;2022-08-01T06:42:44;21.10;91.60
43697;DHT22;29301;47.620;19.560;2022-08-01T06:45:12;21.30;90.80
43697;DHT22;29301;47.620;19.560;2022-08-01T06:47:38;21.60;89.70
43697;DHT22;29301;47.620;19.560;2022-08-01T06:50:06;21.90;86.00
43697;DHT22;29301;47.620;19.560;2022-08-01T06:52:32;22.10;85.00
43697;DHT22;29301;47.620;19.560;2022-08-01T06:54:58;22.30;84.30
43697;DHT22;29301;47.620;19.560;2022-08-01T06:57:23;22.30;82.80
43697;DHT22;29301;47.620;19.560;2022-08-01T06:59:49;22.40;83.00
43697;DHT22;29301;47.620;19.560;2022-08-01T07:02:15;22.60;82.10
43697;DHT22;29301;47.620;19.560;2022-08-01T07:04:40;22.70;81.00
43697;DHT22;29301;47.620;19.560;2022-08-01T07:07:06;23.00;80.40
43697;DHT22;29301;47.620;19.560;2022-08-01T07:09:32;23.20;79.70
43697;DHT22;29301;47.620;19.560;2022-08-01T07:11:58;23.40;78.00
43697;DHT22;29301;47.620;19.560;2022-08-01T07:14:23;23.60;76.00
43697;DHT22;29301;47.620;19.560;2022-08-01T07:16:50;23.70;75.00
43697;DHT22;29301;47.620;19.560;2022-08-01T07:19:16;24.00;72.90
43697;DHT22;29301;47.620;19.560;2022-08-01T07:21:42;24.00;72.00
43697;DHT22;29301;47.620;19.560;2022-08-01T07:24:09;24.10;71.00
43697;DHT22;29301;47.620;19.560;2022-08-01T07:26:35;24.20;70.50
43697;DHT22;29301;47.620;19.560;2022-08-01T07:29:01;24.40;69.50
43697;DHT22;29301;47.620;19.560;2022-08-01T07:31:28;24.60;69.80
43697;DHT22;29301;47.620;19.560;2022-08-01T07:33:54;24.80;68.10
43697;DHT22;29301;47.620;19.560;2022-08-01T07:36:19;25.00;67.70
43697;DHT22;29301;47.620;19.560;2022-08-01T07:38:46;25.30;66.90
43697;DHT22;29301;47.620;19.560;2022-08-01T07:41:11;25.40;66.30
43697;DHT22;29301;47.620;19.560;2022-08-01T07:43:37;25.70;66.10
43697;DHT22;29301;47.620;19.560;2022-08-01T07:46:04;25.80;64.00
43697;DHT22;29301;47.620;19.560;2022-08-01T07:48:30;25.50;63.40
43697;DHT22;29301;47.620;19.560;2022-08-01T07:50:56;25.40;63.20
43697;DHT22;29301;47.620;19.560;2022-08-01T07:53:22;25.70;65.30
43697;DHT22;29301;47.620;19.560;2022-08-01T07:55:48;26.00;62.90
43697;DHT22;29301;47.620;19.560;2022-08-01T07:58:15;26.10;62.30
43697;DHT22;29301;47.620;19.560;2022-08-01T08:00:41;26.30;62.60
43697;DHT22;29301;47.620;19.560;2022-08-01T08:03:07;26.70;62.90
43697;DHT22;29301;47.620;19.560;2022-08-01T08:05:32;27.00;62.20
43697;DHT22;29301;47.620;19.560;2022-08-01T08:08:08;27.20;60.70
43697;DHT22;29301;47.620;19.560;2022-08-01T08:10:36;27.40;60.30
43697;DHT22;29301;47.620;19.560;2022-08-01T08:13:02;27.50;58.60
43697;DHT22;29301;47.620;19.560;2022-08-01T08:15:28;27.60;57.80
43697;DHT22;29301;47.620;19.560;2022-08-01T08:17:54;27.60;57.60
43697;DHT22;29301;47.620;19.560;2022-08-01T08:20:19;27.70;55.80
43697;DHT22;29301;47.620;19.560;2022-08-01T08:22:51;27.70;53.60
43697;DHT22;29301;47.620;19.560;2022-08-01T08:25:17;27.60;53.10
43697;DHT22;29301;47.620;19.560;2022-08-01T08:27:45;27.90;52.50
43697;DHT22;29301;47.620;19.560;2022-08-01T08:30:11;28.00;52.30
43697;DHT22;29301;47.620;19.560;2022-08-01T08:32:37;28.10;52.10
43697;DHT22;29301;47.620;19.560;2022-08-01T08:35:05;28.30;51.20
43697;DHT22;29301;47.620;19.560;2022-08-01T08:37:31;28.50;51.40
43697;DHT22;29301;47.620;19.560;2022-08-01T08:39:57;28.60;51.00
43697;DHT22;29301;47.620;19.560;2022-08-01T08:42:23;28.60;50.30
43697;DHT22;29301;47.620;19.560;2022-08-01T08:44:48;28.30;49.90
43697;DHT22;29301;47.620;19.560;2022-08-01T08:47:14;28.00;50.00
43697;DHT22;29301;47.620;19.560;2022-08-01T08:49:43;28.20;50.30
43697;DHT22;29301;47.620;19.560;2022-08-01T08:52:10;28.40;50.40
43697;DHT22;29301;47.620;19.560;2022-08-01T08:54:38;28.70;49.90
43697;DHT22;29301;47.620;19.560;2022-08-01T08:57:04;28.80;49.70
43697;DHT22;29301;47.620;19.560;2022-08-01T08:59:31;28.70;48.70
43697;DHT22;29301;47.620;19.560;2022-08-01T09:01:58;28.80;48.80
43697;DHT22;29301;47.620;19.560;2022-08-01T09:04:25;28.90;48.10
43697;DHT22;29301;47.620;19.560;2022-08-01T09:06:52;28.70;47.90
43697;DHT22;29301;47.620;19.560;2022-08-01T09:09:18;28.60;48.70
43697;DHT22;29301;47.620;19.560;2022-08-01T09:11:44;28.60;48.80
43697;DHT22;29301;47.620;19.560;2022-08-01T09:14:19;28.50;48.80
43697;DHT22;29301;47.620;19.560;2022-08-01T09:17:05;28.70;48.80
43697;DHT22;29301;47.620;19.560;2022-08-01T09:22:15;29.10;48.60
43697;DHT22;29301;47.620;19.560;2022-08-01T09:25:06;29.20;48.10
43697;DHT22;29301;47.620;19.560;2022-08-01T09:27:32;29.20;47.70
43697;DHT22;29301;47.620;19.560;2022-08-01T09:33:01;29.40;48.30
43697;DHT22;29301;47.620;19.560;2022-08-01T09:35:32;29.80;47.80
43697;DHT22;29301;47.620;19.560;2022-08-01T09:38:16;29.90;47.60
43697;DHT22;29301;47.620;19.560;2022-08-01T09:40:45;30.00;47.70
43697;DHT22;29301;47.620;19.560;2022-08-01T09:43:12;29.70;46.80
43697;DHT22;29301;47.620;19.560;2022-08-01T09:45:37;30.00;47.10
43697;DHT22;29301;47.620;19.560;2022-08-01T09:48:08;30.00;46.90
43697;DHT22;29301;47.620;19.560;2022-08-01T09:50:46;30.10;46.20
43697;DHT22;29301;47.620;19.560;2022-08-01T09:53:13;30.10;46.30
43697;DHT22;29301;47.620;19.560;2022-08-01T09:55:40;30.10;46.10
43697;DHT22;29301;47.620;19.560;2022-08-01T09:58:06;30.00;46.60
43697;DHT22;29301;47.620;19.560;2022-08-01T10:00:33;30.10;46.50
43697;DHT22;29301;47.620;19.560;2022-08-01T10:02:59;30.20;46.20
43697;DHT22;29301;47.620;19.560;2022-08-01T10:05:35;30.20;46.20
43697;DHT22;29301;47.620;19.560;2022-08-01T10:08:03;30.40;45.90
43697;DHT22;29301;47.620;19.560;2022-08-01T10:10:30;30.40;45.40
43697;DHT22;29301;47.620;19.560;2022-08-01T10:12:58;30.30;45.40
43697;DHT22;29301;47.620;19.560;2022-08-01T10:15:25;30.50;45.80
43697;DHT22;29301;47.620;19.560;2022-08-01T10:17:56;30.80;45.30
43697;DHT22;29301;47.620;19.560;2022-08-01T10:20:25;31.10;45.30
43697;DHT22;29301;47.620;19.560;2022-08-01T10:22:53;31.10;44.10
43697;DHT22;29301;47.620;19.560;2022-08-01T10:25:21;30.80;43.90
43697;DHT22;29301;47.620;19.560;2022-08-01T10:27:49;30.60;44.40
43697;DHT22;29301;47.620;19.560;2022-08-01T10:30:15;30.40;44.60
43697;DHT22;29301;47.620;19.560;2022-08-01T10:32:41;30.40;45.00
43697;DHT22;29301;47.620;19.560;2022-08-01T10:35:10;30.60;44.60
43697;DHT22;29301;47.620;19.560;2022-08-01T10:37:44;30.70;44.60
43697;DHT22;29301;47.620;19.560;2022-08-01T10:40:12;31.00;44.80
43697;DHT22;29301;47.620;19.560;2022-08-01T10:42:41;31.20;44.00
43697;DHT22;29301;47.620;19.560;2022-08-01T10:45:08;31.20;43.50
43697;DHT22;29301;47.620;19.560;2022-08-01T10:50:35;30.80;43.90
43697;DHT22;29301;47.620;19.560;2022-08-01T10:53:17;30.90;44.10
43697;DHT22;29301;47.620;19.560;2022-08-01T10:55:58;31.10;44.20
43697;DHT22;29301;47.620;19.560;2022-08-01T11:03:39;30.90;43.70
43697;DHT22;29301;47.620;19.560;2022-08-01T11:06:06;31.00;43.20
43697;DHT22;29301;47.620;19.560;2022-08-01T11:08:36;31.00;43.20
43697;DHT22;29301;47.620;19.560;2022-08-01T11:11:03;31.30;43.30
43697;DHT22;29301;47.620;19.560;2022-08-01T11:14:02;31.60;42.90
43697;DHT22;29301;47.620;19.560;2022-08-01T11:16:38;31.70;43.00
43697;DHT22;29301;47.620;19.560;2022-08-01T11:19:05;31.80;43.00
43697;DHT22;29301;47.620;19.560;2022-08-01T11:27:31;31.80;44.70
43697;DHT22;29301;47.620;19.560;2022-08-01T11:32:49;31.90;44.90
43697;DHT22;29301;47.620;19.560;2022-08-01T11:35:16;31.80;44.30
43697;DHT22;29301;47.620;19.560;2022-08-01T11:37:42;31.70;44.80
43697;DHT22;29301;47.620;19.560;2022-08-01T11:40:27;31.80;44.60
43697;DHT22;29301;47.620;19.560;2022-08-01T11:45:51;32.00;44.10
43697;DHT22;29301;47.620;19.560;2022-08-01T11:48:34;31.90;43.70
43697;DHT22;29301;47.620;19.560;2022-08-01T11:51:01;31.80;43.70
43697;DHT22;29301;47.620;19.560;2022-08-01T11:53:27;31.80;43.90
43697;DHT22;29301;47.620;19.560;2022-08-01T11:55:53;31.80;44.20
43697;DHT22;29301;47.620;19.560;2022-08-01T11:58:24;31.70;43.70
43697;DHT22;29301;47.620;19.560;2022-08-01T12:00:52;31.60;44.10
43697;DHT22;29301;47.620;19.560;2022-08-01T12:03:27;31.60;44.10
43697;DHT22;29301;47.620;19.560;2022-08-01T12:05:54;31.70;44.20
43697;DHT22;29301;47.620;19.560;2022-08-01T12:08:28;31.70;44.30
43697;DHT22;29301;47.620;19.560;2022-08-01T12:10:54;31.70;44.40
43697;DHT22;29301;47.620;19.560;2022-08-01T12:13:21;31.80;43.80
43697;DHT22;29301;47.620;19.560;2022-08-01T12:15:47;31.70;43.80
43697;DHT22;29301;47.620;19.560;2022-08-01T12:18:13;31.60;43.70
43697;DHT22;29301;47.620;19.560;2022-08-01T12:20:43;31.60;44.00
43697;DHT22;29301;47.620;19.560;2022-08-01T12:23:12;31.50;43.90
43697;DHT22;29301;47.620;19.560;2022-08-01T12:25:39;31.50;44.20
43697;DHT22;29301;47.620;19.560;2022-08-01T12:28:07;31.50;44.30
43697;DHT22;29301;47.620;19.560;2022-08-01T12:30:34;31.40;44.20
43697;DHT22;29301;47.620;19.560;2022-08-01T12:33:01;31.40;44.40
43697;DHT22;29301;47.620;19.560;2022-08-01T12:35:28;31.40;44.20
43697;DHT22;29301;47.620;19.560;2022-08-01T12:37:59;31.60;44.10
43697;DHT22;29301;47.620;19.560;2022-08-01T12:40:30;31.80;43.70
43697;DHT22;29301;47.620;19.560;2022-08-01T12:43:07;31.80;43.30
43697;DHT22;29301;47.620;19.560;2022-08-01T12:45:36;31.70;42.70
43697;DHT22;29301;47.620;19.560;2022-08-01T12:48:09;31.50;43.00
43697;DHT22;29301;47.620;19.560;2022-08-01T12:50:38;31.40;42.90
43697;DHT22;29301;47.620;19.560;2022-08-01T12:53:04;31.10;43.00
43697;DHT22;29301;47.620;19.560;2022-08-01T12:55:30;31.00;43.10
43697;DHT22;29301;47.620;19.560;2022-08-01T12:58:05;31.00;43.30
43697;DHT22;29301;47.620;19.560;2022-08-01T13:00:32;30.90;43.00
43697;DHT22;29301;47.620;19.560;2022-08-01T13:03:09;31.00;43.30
43697;DHT22;29301;47.620;19.560;2022-08-01T13:05:42;31.10;43.10
43697;DHT22;29301;47.620;19.560;2022-08-01T13:08:11;31.10;43.00
43697;DHT22;29301;47.620;19.560;2022-08-01T13:10:37;31.00;43.10
43697;DHT22;29301;47.620;19.560;2022-08-01T13:13:04;31.10;43.60
43697;DHT22;29301;47.620;19.560;2022-08-01T13:15:32;31.10;43.70
43697;DHT22;29301;47.620;19.560;2022-08-01T13:18:02;31.00;43.60
43697;DHT22;29301;47.620;19.560;2022-08-01T13:20:46;30.90;43.40
43697;DHT22;29301;47.620;19.560;2022-08-01T13:23:16;30.80;43.40
43697;DHT22;29301;47.620;19.560;2022-08-01T13:25:50;30.70;43.40
43697;DHT22;29301;47.620;19.560;2022-08-01T13:28:24;30.80;43.50
43697;DHT22;29301;47.620;19.560;2022-08-01T13:30:52;30.80;43.70
43697;DHT22;29301;47.620;19.560;2022-08-01T13:33:18;30.90;44.00
43697;DHT22;29301;47.620;19.560;2022-08-01T13:35:44;31.00;44.10
43697;DHT22;29301;47.620;19.560;2022-08-01T13:38:10;31.10;44.20
43697;DHT22;29301;47.620;19.560;2022-08-01T13:40:35;31.10;44.10
43697;DHT22;29301;47.620;19.560;2022-08-01T13:43:01;31.20;44.30
43697;DHT22;29301;47.620;19.560;2022-08-01T13:45:27;31.30;44.50
43697;DHT22;29301;47.620;19.560;2022-08-01T13:47:52;31.30;44.20
43697;DHT22;29301;47.620;19.560;2022-08-01T13:50:18;31.30;44.40
43697;DHT22;29301;47.620;19.560;2022-08-01T13:52:44;31.00;44.80
43697;DHT22;29301;47.620;19.560;2022-08-01T13:55:10;30.90;44.60
43697;DHT22;29301;47.620;19.560;2022-08-01T13:57:36;30.90;44.90
43697;DHT22;29301;47.620;19.560;2022-08-01T14:00:03;30.90;45.20
43697;DHT22;29301;47.620;19.560;2022-08-01T14:02:29;30.80;44.80
43697;DHT22;29301;47.620;19.560;2022-08-01T14:04:54;30.70;45.10
43697;DHT22;29301;47.620;19.560;2022-08-01T14:07:21;30.60;45.10
43697;DHT22;29301;47.620;19.560;2022-08-01T14:09:46;30.70;45.30
43697;DHT22;29301;47.620;19.560;2022-08-01T14:12:12;30.80;44.90
43697;DHT22;29301;47.620;19.560;2022-08-01T14:14:38;30.70;45.00
43697;DHT22;29301;47.620;19.560;2022-08-01T14:17:04;30.70;45.20
43697;DHT22;29301;47.620;19.560;2022-08-01T14:19:30;30.80;45.00
43697;DHT22;29301;47.620;19.560;2022-08-01T14:21:56;30.70;44.90
43697;DHT22;29301;47.620;19.560;2022-08-01T14:24:23;30.50;45.00
43697;DHT22;29301;47.620;19.560;2022-08-01T14:26:49;30.40;44.80
43697;DHT22;29301;47.620;19.560;2022-08-01T14:29:15;30.30;45.00
43697;DHT22;29301;47.620;19.560;2022-08-01T14:31:41;30.20;44.80
43697;DHT22;29301;47.620;19.560;2022-08-01T14:34:06;30.10;45.20
43697;DHT22;29301;47.620;19.560;2022-08-01T14:36:32;30.00;44.90
43697;DHT22;29301;47.620;19.560;2022-08-01T14:38:59;29.80;45.00
43697;DHT22;29301;47.620;19.560;2022-08-01T14:41:25;29.70;45.10
43697;DHT22;29301;47.620;19.560;2022-08-01T14:43:50;29.90;45.40
43697;DHT22;29301;47.620;19.560;2022-08-01T14:46:16;30.00;45.10
43697;DHT22;29301;47.620;19.560;2022-08-01T14:48:42;29.90;44.90
43697;DHT22;29301;47.620;19.560;2022-08-01T14:51:08;29.90;45.00
43697;DHT22;29301;47.620;19.560;2022-08-01T14:53:34;29.90;45.30
43697;DHT22;29301;47.620;19.560;2022-08-01T14:56:03;29.90;45.10
43697;DHT22;29301;47.620;19.560;2022-08-01T14:58:29;29.90;45.20
43697;DHT22;29301;47.620;19.560;2022-08-01T15:00:55;29.90;45.40
43697;DHT22;29301;47.620;19.560;2022-08-01T15:03:21;29.80;45.40
43697;DHT22;29301;47.620;19.560;2022-08-01T15:05:47;29.90;45.10
43697;DHT22;29301;47.620;19.560;2022-08-01T15:08:13;29.80;44.30
43697;DHT22;29301;47.620;19.560;2022-08-01T15:10:39;29.80;44.20
43697;DHT22;29301;47.620;19.560;2022-08-01T15:13:04;29.80;44.40
43697;DHT22;29301;47.620;19.560;2022-08-01T15:15:30;29.90;44.80
43697;DHT22;29301;47.620;19.560;2022-08-01T15:17:59;30.00;44.80
43697;DHT22;29301;47.620;19.560;2022-08-01T15:20:25;29.90;44.50
43697;DHT22;29301;47.620;19.560;2022-08-01T15:22:53;30.10;44.80
43697;DHT22;29301;47.620;19.560;2022-08-01T15:25:19;30.10;44.90
43697;DHT22;29301;47.620;19.560;2022-08-01T15:27:45;30.20;45.40
43697;DHT22;29301;47.620;19.560;2022-08-01T15:30:11;30.30;45.50
43697;DHT22;29301;47.620;19.560;2022-08-01T15:32:37;30.20;45.30
43697;DHT22;29301;47.620;19.560;2022-08-01T15:35:04;30.40;45.50
43697;DHT22;29301;47.620;19.560;2022-08-01T15:37:31;30.30;45.70
43697;DHT22;29301;47.620;19.560;2022-08-01T15:39:57;30.30;45.70
43697;DHT22;29301;47.620;19.560;2022-08-01T15:42:23;30.30;45.30
43697;DHT22;29301;47.620;19.560;2022-08-01T15:44:49;30.20;45.40
43697;DHT22;29301;47.620;19.560;2022-08-01T15:47:14;30.10;45.70
43697;DHT22;29301;47.620;19.560;2022-08-01T15:49:40;30.00;46.20
43697;DHT22;29301;47.620;19.560;2022-08-01T15:52:07;29.90;46.40
43697;DHT22;29301;47.620;19.560;2022-08-01T15:54:34;29.80;46.00